DDG YBCG-YBAF
Flight info
| Callsign | DDG |
|---|---|
| Flight time | 0h 29m |
| Altitude | 3000 |
| Route | MOOVI |
| Aircraft | BE58/L-SDFGRY/C |
Departure
| Time | 2026-04-25 06:20 |
|---|---|
| Airport | Gold Coast Airport (YBCG) |
Arrival
| Time | 2026-04-25 06:49 |
|---|---|
| Airport | Brisbane Archerfield Airport (YBAF) |
| Time | Latitude | Longitude | Altitude | Speed | Heading |
|---|---|---|---|---|---|
| 2026-04-25 06:16 | -28.16318 | 153.50643 | 21 ft | 0 kts | 53° |
| 2026-04-25 06:16 | -28.16202 | 153.50637 | 20 ft | 31 kts | 330° |
| 2026-04-25 06:17 | -28.16061 | 153.50544 | 20 ft | 17 kts | 312° |
| 2026-04-25 06:17 | -28.16079 | 153.50479 | 20 ft | 1 kts | 238° |
| 2026-04-25 06:17 | -28.16087 | 153.50464 | 20 ft | 0 kts | 242° |
| 2026-04-25 06:19 | -28.16105 | 153.50426 | 21 ft | 15 kts | 243° |
| 2026-04-25 06:19 | -28.16189 | 153.50416 | 21 ft | 25 kts | 153° |
| 2026-04-25 06:19 | -28.16614 | 153.50676 | 142 ft | 99 kts | 153° |
| 2026-04-25 06:20 | -28.17305 | 153.51084 | 654 ft | 120 kts | 150° |
| 2026-04-25 06:20 | -28.17934 | 153.51694 | 1284 ft | 122 kts | 128° |
| 2026-04-25 06:20 | -28.18195 | 153.52512 | 1527 ft | 109 kts | 100° |
| 2026-04-25 06:20 | -28.18114 | 153.53394 | 1391 ft | 116 kts | 88° |
| 2026-04-25 06:21 | -28.17947 | 153.54306 | 1322 ft | 116 kts | 89° |
| 2026-04-25 06:21 | -28.17702 | 153.55172 | 1341 ft | 114 kts | 80° |
| 2026-04-25 06:21 | -28.17373 | 153.55943 | 1432 ft | 104 kts | 73° |
| 2026-04-25 06:21 | -28.16924 | 153.56579 | 1476 ft | 107 kts | 59° |
| 2026-04-25 06:22 | -28.16382 | 153.57159 | 1518 ft | 106 kts | 57° |
| 2026-04-25 06:22 | -28.15889 | 153.57742 | 1604 ft | 95 kts | 72° |
| 2026-04-25 06:22 | -28.15245 | 153.58265 | 1736 ft | 155 kts | 19° |
| 2026-04-25 06:22 | -28.14058 | 153.58005 | 1879 ft | 199 kts | 332° |
| 2026-04-25 06:23 | -28.12909 | 153.57008 | 2030 ft | 216 kts | 318° |
| 2026-04-25 06:23 | -28.11828 | 153.55890 | 2260 ft | 219 kts | 316° |
| 2026-04-25 06:23 | -28.10724 | 153.54722 | 2504 ft | 218 kts | 316° |
| 2026-04-25 06:23 | -28.09632 | 153.53541 | 2748 ft | 215 kts | 316° |
| 2026-04-25 06:24 | -28.08621 | 153.52442 | 2970 ft | 196 kts | 316° |
| 2026-04-25 06:24 | -28.07646 | 153.51379 | 3024 ft | 195 kts | 316° |
| 2026-04-25 06:24 | -28.06703 | 153.50350 | 3025 ft | 195 kts | 316° |
| 2026-04-25 06:24 | -28.05718 | 153.49284 | 3030 ft | 197 kts | 316° |
| 2026-04-25 06:25 | -28.04729 | 153.48210 | 3029 ft | 197 kts | 316° |
| 2026-04-25 06:25 | -28.03741 | 153.47133 | 3036 ft | 198 kts | 316° |
| 2026-04-25 06:25 | -28.02759 | 153.46045 | 3036 ft | 197 kts | 314° |
| 2026-04-25 06:25 | -28.01847 | 153.44917 | 3037 ft | 197 kts | 311° |
| 2026-04-25 06:26 | -28.00958 | 153.43788 | 3037 ft | 197 kts | 311° |
| 2026-04-25 06:26 | -28.00036 | 153.42627 | 3029 ft | 199 kts | 311° |
| 2026-04-25 06:26 | -27.99106 | 153.41471 | 3031 ft | 197 kts | 311° |
| 2026-04-25 06:26 | -27.98194 | 153.40322 | 3029 ft | 196 kts | 311° |
| 2026-04-25 06:27 | -27.97322 | 153.39208 | 3028 ft | 196 kts | 311° |
| 2026-04-25 06:27 | -27.96499 | 153.38157 | 3030 ft | 196 kts | 311° |
| 2026-04-25 06:27 | -27.95610 | 153.37027 | 3034 ft | 198 kts | 311° |
| 2026-04-25 06:27 | -27.94730 | 153.35906 | 3035 ft | 201 kts | 310° |
| 2026-04-25 06:28 | -27.93826 | 153.34772 | 2995 ft | 204 kts | 311° |
| 2026-04-25 06:28 | -27.92872 | 153.33736 | 2926 ft | 204 kts | 324° |
| 2026-04-25 06:28 | -27.91701 | 153.32932 | 2853 ft | 205 kts | 333° |
| 2026-04-25 06:28 | -27.90508 | 153.32186 | 2783 ft | 204 kts | 333° |
| 2026-04-25 06:29 | -27.89310 | 153.31435 | 2708 ft | 203 kts | 333° |
| 2026-04-25 06:29 | -27.88135 | 153.30710 | 2641 ft | 204 kts | 333° |
| 2026-04-25 06:29 | -27.86955 | 153.29992 | 2561 ft | 203 kts | 333° |
| 2026-04-25 06:29 | -27.85761 | 153.29259 | 2488 ft | 202 kts | 333° |
| 2026-04-25 06:30 | -27.84620 | 153.28554 | 2419 ft | 201 kts | 333° |
| 2026-04-25 06:30 | -27.83448 | 153.27832 | 2346 ft | 196 kts | 333° |
| 2026-04-25 06:30 | -27.82243 | 153.27070 | 2268 ft | 199 kts | 333° |
| 2026-04-25 06:30 | -27.81017 | 153.26318 | 2186 ft | 201 kts | 333° |
| 2026-04-25 06:31 | -27.79820 | 153.25577 | 2126 ft | 198 kts | 333° |
| 2026-04-25 06:31 | -27.78626 | 153.24819 | 2055 ft | 200 kts | 333° |
| 2026-04-25 06:31 | -27.77412 | 153.24052 | 1975 ft | 200 kts | 333° |
| 2026-04-25 06:31 | -27.76190 | 153.23305 | 1905 ft | 197 kts | 333° |
| 2026-04-25 06:32 | -27.74981 | 153.22587 | 1822 ft | 197 kts | 334° |
| 2026-04-25 06:32 | -27.73768 | 153.21856 | 1741 ft | 198 kts | 332° |
| 2026-04-25 06:32 | -27.72546 | 153.21106 | 1676 ft | 201 kts | 333° |
| 2026-04-25 06:32 | -27.71302 | 153.20366 | 1603 ft | 203 kts | 334° |
| 2026-04-25 06:33 | -27.70077 | 153.19608 | 1521 ft | 203 kts | 329° |
| 2026-04-25 06:33 | -27.68915 | 153.18723 | 1519 ft | 200 kts | 324° |
| 2026-04-25 06:33 | -27.67780 | 153.17810 | 1519 ft | 198 kts | 325° |
| 2026-04-25 06:33 | -27.66723 | 153.16929 | 1516 ft | 180 kts | 324° |
| 2026-04-25 06:34 | -27.65753 | 153.16107 | 1509 ft | 168 kts | 324° |
| 2026-04-25 06:34 | -27.64829 | 153.15341 | 1507 ft | 163 kts | 324° |
| 2026-04-25 06:34 | -27.63901 | 153.14595 | 1505 ft | 164 kts | 324° |
| 2026-04-25 06:34 | -27.62995 | 153.13823 | 1504 ft | 162 kts | 315° |
| 2026-04-25 06:35 | -27.62281 | 153.12843 | 1498 ft | 161 kts | 304° |
| 2026-04-25 06:35 | -27.61663 | 153.11812 | 1500 ft | 157 kts | 304° |
| 2026-04-25 06:35 | -27.61022 | 153.10817 | 1499 ft | 157 kts | 305° |
| 2026-04-25 06:35 | -27.60389 | 153.09840 | 1501 ft | 157 kts | 306° |
| 2026-04-25 06:36 | -27.59760 | 153.08845 | 1502 ft | 155 kts | 306° |
| 2026-04-25 06:36 | -27.59156 | 153.07858 | 1501 ft | 151 kts | 305° |
| 2026-04-25 06:36 | -27.58574 | 153.06891 | 1500 ft | 148 kts | 305° |
| 2026-04-25 06:36 | -27.57993 | 153.05937 | 1502 ft | 147 kts | 305° |
| 2026-04-25 06:37 | -27.57420 | 153.04994 | 1501 ft | 145 kts | 300° |
| 2026-04-25 06:37 | -27.56973 | 153.03978 | 1504 ft | 144 kts | 295° |
| 2026-04-25 06:37 | -27.56535 | 153.02958 | 1503 ft | 145 kts | 295° |
| 2026-04-25 06:37 | -27.56135 | 153.01918 | 1503 ft | 144 kts | 291° |
| 2026-04-25 06:38 | -27.55759 | 153.00880 | 1478 ft | 149 kts | 291° |
| 2026-04-25 06:38 | -27.55351 | 152.99781 | 1436 ft | 154 kts | 291° |
| 2026-04-25 06:38 | -27.54943 | 152.98666 | 1393 ft | 153 kts | 291° |
| 2026-04-25 06:38 | -27.54568 | 152.97553 | 1346 ft | 149 kts | 278° |
| 2026-04-25 06:39 | -27.54723 | 152.96497 | 1346 ft | 134 kts | 227° |
| 2026-04-25 06:39 | -27.55469 | 152.95994 | 1177 ft | 119 kts | 178° |
| 2026-04-25 06:39 | -27.56134 | 152.96372 | 898 ft | 111 kts | 112° |
| 2026-04-25 06:39 | -27.56314 | 152.97190 | 829 ft | 103 kts | 106° |
| 2026-04-25 06:40 | -27.56532 | 152.97934 | 665 ft | 97 kts | 109° |
| 2026-04-25 06:40 | -27.56735 | 152.98622 | 483 ft | 88 kts | 103° |
| 2026-04-25 06:40 | -27.56909 | 152.99296 | 201 ft | 99 kts | 107° |
| 2026-04-25 06:40 | -27.57112 | 152.99999 | 46 ft | 84 kts | 108° |
| 2026-04-25 06:41 | -27.57272 | 153.00547 | 46 ft | 87 kts | 109° |
| 2026-04-25 06:41 | -27.57484 | 153.01353 | 312 ft | 125 kts | 106° |
| 2026-04-25 06:41 | -27.57711 | 153.02376 | 896 ft | 135 kts | 96° |
| 2026-04-25 06:41 | -27.57462 | 153.03545 | 955 ft | 174 kts | 59° |
| 2026-04-25 06:42 | -27.56379 | 153.04136 | 957 ft | 183 kts | 359° |
| 2026-04-25 06:42 | -27.55408 | 153.03315 | 985 ft | 187 kts | 287° |
| 2026-04-25 06:42 | -27.55189 | 153.01882 | 906 ft | 191 kts | 275° |
| 2026-04-25 06:42 | -27.55005 | 153.00410 | 983 ft | 187 kts | 275° |
| 2026-04-25 06:43 | -27.54967 | 152.98979 | 944 ft | 167 kts | 253° |
| 2026-04-25 06:43 | -27.55571 | 152.98224 | 806 ft | 123 kts | 191° |
| 2026-04-25 06:43 | -27.56366 | 152.98032 | 634 ft | 111 kts | 165° |
| 2026-04-25 06:43 | -27.56757 | 152.98668 | 416 ft | 107 kts | 99° |
| 2026-04-25 06:44 | -27.56954 | 152.99463 | 163 ft | 94 kts | 109° |
| 2026-04-25 06:44 | -27.57130 | 153.00062 | 41 ft | 65 kts | 109° |
| 2026-04-25 06:44 | -27.57304 | 153.00637 | 114 ft | 100 kts | 108° |
| 2026-04-25 06:44 | -27.57535 | 153.01437 | 651 ft | 111 kts | 110° |
| 2026-04-25 06:45 | -27.57619 | 153.02326 | 1010 ft | 139 kts | 82° |
| 2026-04-25 06:45 | -27.57023 | 153.03276 | 998 ft | 163 kts | 33° |
| 2026-04-25 06:45 | -27.55850 | 153.03319 | 916 ft | 184 kts | 331° |
| 2026-04-25 06:45 | -27.55348 | 153.02060 | 937 ft | 182 kts | 279° |
| 2026-04-25 06:46 | -27.55101 | 153.00634 | 891 ft | 186 kts | 281° |
| 2026-04-25 06:46 | -27.54811 | 152.99208 | 953 ft | 187 kts | 281° |
| 2026-04-25 06:46 | -27.54524 | 152.97813 | 1042 ft | 169 kts | 281° |
| 2026-04-25 06:46 | -27.54515 | 152.96716 | 903 ft | 130 kts | 238° |
| 2026-04-25 06:47 | -27.55181 | 152.96201 | 930 ft | 113 kts | 185° |
| 2026-04-25 06:47 | -27.55913 | 152.96286 | 848 ft | 106 kts | 147° |
| 2026-04-25 06:47 | -27.56295 | 152.96940 | 723 ft | 105 kts | 105° |
| 2026-04-25 06:47 | -27.56523 | 152.97751 | 583 ft | 109 kts | 105° |
| 2026-04-25 06:48 | -27.56684 | 152.98464 | 389 ft | 83 kts | 106° |
| 2026-04-25 06:48 | -27.56848 | 152.99055 | 207 ft | 80 kts | 107° |
| 2026-04-25 06:48 | -27.57016 | 152.99663 | 67 ft | 75 kts | 109° |
| 2026-04-25 06:48 | -27.57163 | 153.00177 | 39 ft | 60 kts | 108° |
| 2026-04-25 06:49 | -27.57270 | 153.00544 | 42 ft | 41 kts | 109° |
| 2026-04-25 06:49 | -27.57282 | 153.00717 | 39 ft | 14 kts | 14° |
| 2026-04-25 06:49 | -27.57268 | 153.00721 | 38 ft | 0 kts | 18° |
| 2026-04-25 06:49 | -27.57266 | 153.00722 | 38 ft | 1 kts | 17° |
| 2026-04-25 06:50 | -27.57240 | 153.00734 | 39 ft | 7 kts | 50° |
| 2026-04-25 06:50 | -27.57249 | 153.00819 | 39 ft | 27 kts | 77° |
| 2026-04-25 06:50 | -27.57207 | 153.00999 | 44 ft | 22 kts | 78° |
| 2026-04-25 06:50 | -27.57177 | 153.01158 | 46 ft | 16 kts | 85° |
| 2026-04-25 06:51 | -27.57170 | 153.01181 | 47 ft | 0 kts | 310° |